Terminal Aerodrome Forecast
Issued by NWS

Home | Current Version | Previous Version | Graphics & Text | Print | Product List | Glossary On
Versions: 1 2 3 4 5 6 7 8 9 10 11 12 13 14 15 16 17 18 19
000
FTUS43 KGRB 252300
TAFAUW
TAF
KAUW 252335Z 2600/2624 24007KT P6SM SCT025 BKN050
     FM260600 00000KT 5SM BR FEW020 BKN040=

USA.gov is the U.S. government's official web portal to all federal, state and local government web resources and services.